createdAt,value
2022-07-30T00:00:25.084Z,7.87
2022-07-30T00:02:30.019Z,8.20
2022-07-30T00:04:33.502Z,8.07
2022-07-30T00:06:37.836Z,10.97
2022-07-30T00:08:40.909Z,9.47
2022-07-30T00:10:44.071Z,9.53
2022-07-30T00:12:49.070Z,8.47
2022-07-30T00:14:52.294Z,7.60
2022-07-30T00:16:55.595Z,8.63
2022-07-30T00:19:00.135Z,8.40
2022-07-30T00:21:03.167Z,7.90
2022-07-30T00:23:06.355Z,7.90
2022-07-30T00:25:10.115Z,8.37
2022-07-30T00:27:14.460Z,9.07
2022-07-30T00:29:17.631Z,9.20
2022-07-30T00:31:20.726Z,7.97
2022-07-30T00:33:24.073Z,8.30
2022-07-30T00:35:28.845Z,8.50
2022-07-30T00:37:31.915Z,8.13
2022-07-30T00:39:34.980Z,8.63
2022-07-30T00:41:56.469Z,7.43
2022-07-30T00:43:59.996Z,8.10
2022-07-30T00:46:03.199Z,8.70
2022-07-30T00:48:07.134Z,7.80
2022-07-30T00:50:11.571Z,8.90
2022-07-30T00:52:16.110Z,8.20
2022-07-30T00:54:19.427Z,8.57
2022-07-30T00:56:23.039Z,8.10
2022-07-30T00:58:26.179Z,9.23
2022-07-30T01:00:29.669Z,7.87
2022-07-30T01:02:34.319Z,8.20
2022-07-30T01:04:37.460Z,8.43
2022-07-30T01:06:40.899Z,8.40
2022-07-30T01:08:45.505Z,9.63
2022-07-30T01:10:48.609Z,9.00
2022-07-30T01:12:52.733Z,7.73
2022-07-30T01:14:58.796Z,8.83
2022-07-30T01:17:02.489Z,9.37
2022-07-30T01:19:26.376Z,9.13
2022-07-30T01:21:33.510Z,8.50
2022-07-30T01:23:43.216Z,8.50
2022-07-30T01:25:54.471Z,9.93
2022-07-30T01:28:01.488Z,8.20
2022-07-30T01:30:07.379Z,8.60
2022-07-30T01:32:12.243Z,8.80
2022-07-30T01:34:17.352Z,8.60
2022-07-30T01:36:22.870Z,8.40
2022-07-30T01:38:27.104Z,8.93
2022-07-30T01:40:35.384Z,8.50
2022-07-30T01:42:41.478Z,8.90
2022-07-30T01:44:45.645Z,8.93
2022-07-30T01:46:50.104Z,8.83
2022-07-30T01:48:54.921Z,9.60
2022-07-30T01:51:04.244Z,8.80
2022-07-30T01:53:08.581Z,8.63
2022-07-30T01:55:17.152Z,8.80
2022-07-30T01:57:21.009Z,9.10
2022-07-30T01:59:26.674Z,10.70
2022-07-30T02:01:29.871Z,8.70
2022-07-30T02:03:36.131Z,8.83
2022-07-30T02:05:39.883Z,9.53
2022-07-30T02:07:48.968Z,9.50
2022-07-30T02:09:55.644Z,8.70
2022-07-30T02:12:17.534Z,8.40
2022-07-30T02:14:23.366Z,9.07
2022-07-30T02:16:30.713Z,8.07
2022-07-30T02:18:39.591Z,8.07
2022-07-30T02:20:48.746Z,7.67
2022-07-30T02:22:56.745Z,8.67
2022-07-30T02:25:01.693Z,8.40
2022-07-30T02:27:11.601Z,8.70
2022-07-30T02:29:18.149Z,8.77
2022-07-30T02:31:26.508Z,8.40
2022-07-30T02:33:36.104Z,9.40
2022-07-30T02:35:52.054Z,8.40
2022-07-30T02:37:55.980Z,8.07
2022-07-30T02:39:59.512Z,9.90
2022-07-30T02:42:03.510Z,8.43
2022-07-30T02:44:07.300Z,7.57
2022-07-30T02:46:11.419Z,8.00
2022-07-30T02:48:37.434Z,8.40
2022-07-30T02:50:40.728Z,8.40
2022-07-30T02:52:44.596Z,8.13
2022-07-30T02:54:49.245Z,7.37
2022-07-30T02:56:53.136Z,8.43
2022-07-30T02:58:57.245Z,10.27
2022-07-30T03:01:01.577Z,7.80
2022-07-30T03:03:07.200Z,9.20
2022-07-30T03:05:15.957Z,11.30
2022-07-30T03:07:19.963Z,10.47
2022-07-30T03:09:23.200Z,12.43
2022-07-30T03:11:28.204Z,9.90
2022-07-30T03:13:31.564Z,10.10
2022-07-30T03:15:39.481Z,10.23
2022-07-30T03:17:45.734Z,9.87
2022-07-30T03:19:49.810Z,10.80
2022-07-30T03:21:57.539Z,10.20
2022-07-30T03:24:03.299Z,11.37
2022-07-30T03:26:09.521Z,11.00
2022-07-30T03:28:13.824Z,11.00
2022-07-30T03:30:17.994Z,11.43
2022-07-30T03:32:21.288Z,10.23
2022-07-30T03:34:29.755Z,10.73
2022-07-30T03:36:33.322Z,11.77
2022-07-30T03:38:39.223Z,11.10
2022-07-30T03:40:43.123Z,11.00
2022-07-30T03:42:46.751Z,11.57
2022-07-30T03:44:53.440Z,11.80
2022-07-30T03:46:59.367Z,12.37
2022-07-30T03:49:03.290Z,12.17
2022-07-30T03:51:10.045Z,13.60
2022-07-30T03:53:15.284Z,11.40
2022-07-30T03:55:45.609Z,12.90
2022-07-30T03:58:07.801Z,12.70
2022-07-30T04:00:15.319Z,12.07
2022-07-30T04:02:23.998Z,11.93
2022-07-30T04:04:47.470Z,12.13
2022-07-30T04:06:50.709Z,11.53
2022-07-30T04:08:55.628Z,13.00
2022-07-30T04:11:00.291Z,12.10
2022-07-30T04:13:34.714Z,12.87
2022-07-30T04:16:37.887Z,11.90
2022-07-30T04:18:12.511Z,12.13
2022-07-30T04:20:18.780Z,14.10
2022-07-30T04:22:27.975Z,12.40
2022-07-30T04:24:32.653Z,15.17
2022-07-30T04:26:39.105Z,11.27
2022-07-30T04:28:42.550Z,11.43
2022-07-30T04:30:47.282Z,11.67
2022-07-30T04:32:50.731Z,11.33
2022-07-30T04:35:12.504Z,11.07
2022-07-30T04:37:55.986Z,10.87
2022-07-30T04:39:59.089Z,10.87
2022-07-30T04:42:03.597Z,12.23
2022-07-30T04:44:13.597Z,11.40
2022-07-30T04:46:26.072Z,10.00
2022-07-30T04:48:30.570Z,10.33
2022-07-30T04:50:48.501Z,10.13
2022-07-30T04:52:55.697Z,10.93
2022-07-30T04:55:06.763Z,11.10
2022-07-30T04:57:12.341Z,11.80
2022-07-30T04:59:16.065Z,12.10
2022-07-30T05:01:24.110Z,11.30
2022-07-30T05:03:41.358Z,10.27
2022-07-30T05:05:44.702Z,12.00
2022-07-30T05:07:47.956Z,10.07
2022-07-30T05:09:51.510Z,11.77
2022-07-30T05:11:56.171Z,11.40
2022-07-30T05:14:01.262Z,11.70
2022-07-30T05:16:04.706Z,13.50
2022-07-30T05:18:08.771Z,12.80
2022-07-30T05:20:15.575Z,12.63
2022-07-30T05:22:37.777Z,11.67
2022-07-30T05:24:47.878Z,11.00
2022-07-30T05:26:51.193Z,11.53
2022-07-30T05:28:56.944Z,12.20
2022-07-30T05:31:15.233Z,12.60
2022-07-30T05:33:42.286Z,11.60
2022-07-30T05:35:49.271Z,12.10
2022-07-30T05:37:52.430Z,12.53
2022-07-30T05:39:57.451Z,12.40
2022-07-30T05:42:26.550Z,11.00
2022-07-30T05:44:33.382Z,11.60
2022-07-30T05:46:37.931Z,11.60
2022-07-30T05:48:41.152Z,11.60
2022-07-30T05:50:44.344Z,10.70
2022-07-30T05:52:47.482Z,10.77
2022-07-30T05:55:11.605Z,11.07
2022-07-30T05:57:29.750Z,12.77
2022-07-30T05:59:33.749Z,10.07
2022-07-30T06:02:03.302Z,10.40
2022-07-30T06:04:25.138Z,12.50
2022-07-30T06:06:34.497Z,11.73
2022-07-30T06:08:37.850Z,10.53
2022-07-30T06:10:41.496Z,10.60
2022-07-30T06:12:47.761Z,10.50
2022-07-30T06:14:52.805Z,10.73
2022-07-30T06:17:03.708Z,10.83
2022-07-30T06:19:24.018Z,9.63
2022-07-30T06:21:27.124Z,10.97
2022-07-30T06:23:42.194Z,10.40
2022-07-30T06:25:59.767Z,10.27
2022-07-30T06:28:20.898Z,10.00
2022-07-30T06:30:31.376Z,8.67
2022-07-30T06:32:37.156Z,10.17
2022-07-30T06:34:40.741Z,11.00
2022-07-30T06:36:44.293Z,9.43
2022-07-30T06:39:05.535Z,8.23
2022-07-30T06:41:27.287Z,10.17
2022-07-30T06:43:34.472Z,9.80
2022-07-30T06:46:06.515Z,12.57
2022-07-30T06:48:16.242Z,8.43
2022-07-30T06:50:20.348Z,8.10
2022-07-30T06:52:23.684Z,8.00
2022-07-30T06:54:28.900Z,8.03
2022-07-30T06:56:34.728Z,7.73
2022-07-30T06:58:40.922Z,8.20
2022-07-30T07:01:02.539Z,11.20
2022-07-30T07:03:11.520Z,8.43
2022-07-30T07:05:16.423Z,11.27
2022-07-30T07:07:40.306Z,8.77
2022-07-30T07:09:45.782Z,10.00
2022-07-30T07:12:11.507Z,10.07
2022-07-30T07:14:17.408Z,11.50
2022-07-30T07:16:21.741Z,9.27
2022-07-30T07:18:25.734Z,11.90
2022-07-30T07:20:38.293Z,8.13
2022-07-30T07:22:43.996Z,7.83
2022-07-30T07:24:49.116Z,7.47
2022-07-30T07:26:57.299Z,8.90
2022-07-30T07:29:04.964Z,9.00
2022-07-30T07:31:09.554Z,13.43
2022-07-30T07:33:13.378Z,10.23
2022-07-30T07:35:20.264Z,8.40
2022-07-30T07:37:27.135Z,10.40
2022-07-30T07:39:31.462Z,11.40
2022-07-30T07:41:48.183Z,7.13
2022-07-30T07:43:54.158Z,7.73
2022-07-30T07:46:06.720Z,8.63
2022-07-30T07:48:11.783Z,8.13
2022-07-30T07:50:27.049Z,6.87
2022-07-30T07:52:31.663Z,8.70
2022-07-30T07:54:34.820Z,8.70
2022-07-30T07:56:37.976Z,8.50
2022-07-30T07:58:42.986Z,8.40
2022-07-30T08:00:48.558Z,10.40
2022-07-30T08:02:53.434Z,9.97
2022-07-30T08:04:56.754Z,8.40
2022-07-30T08:07:21.523Z,8.40
2022-07-30T08:09:52.017Z,8.37
2022-07-30T08:12:13.898Z,8.67
2022-07-30T08:14:39.974Z,8.30
2022-07-30T08:17:09.590Z,8.10
2022-07-30T08:19:33.004Z,7.17
2022-07-30T08:21:53.177Z,12.40
2022-07-30T08:23:56.457Z,15.17
2022-07-30T08:26:02.119Z,8.40
2022-07-30T08:28:05.405Z,10.77
2022-07-30T08:30:10.289Z,7.77
2022-07-30T08:32:14.594Z,7.83
2022-07-30T08:34:20.344Z,7.73
2022-07-30T08:36:29.136Z,9.67
2022-07-30T08:38:32.424Z,9.80
2022-07-30T08:40:36.562Z,11.80
2022-07-30T08:42:42.220Z,8.27
2022-07-30T08:44:46.416Z,6.20
2022-07-30T08:46:53.019Z,5.93
2022-07-30T08:49:16.738Z,7.73
2022-07-30T08:51:21.030Z,5.70
2022-07-30T08:53:43.307Z,9.30
2022-07-30T08:55:46.549Z,7.00
2022-07-30T08:57:51.075Z,6.87
2022-07-30T09:00:00.403Z,21.73
2022-07-30T09:02:07.795Z,10.93
2022-07-30T09:04:23.645Z,7.83
2022-07-30T09:06:29.284Z,7.70
2022-07-30T09:08:33.440Z,9.10
2022-07-30T09:10:37.463Z,8.40
2022-07-30T09:12:41.576Z,10.53
2022-07-30T09:15:02.817Z,7.00
2022-07-30T09:17:06.946Z,6.87
2022-07-30T09:19:15.349Z,8.47
2022-07-30T09:21:20.850Z,7.93
2022-07-30T09:23:28.177Z,9.43
2022-07-30T09:25:51.927Z,7.47
2022-07-30T09:28:15.825Z,6.87
2022-07-30T09:30:48.183Z,8.77
2022-07-30T09:33:09.644Z,7.63
2022-07-30T09:35:36.190Z,7.67
2022-07-30T09:37:48.592Z,10.83
2022-07-30T09:40:16.666Z,5.63
2022-07-30T09:42:45.749Z,7.53
2022-07-30T09:44:51.244Z,6.37
2022-07-30T09:46:55.973Z,7.50
2022-07-30T09:49:15.892Z,6.30
2022-07-30T09:51:23.841Z,6.57
2022-07-30T09:53:55.856Z,6.00
2022-07-30T09:56:04.397Z,6.53
2022-07-30T09:58:08.236Z,6.23
2022-07-30T10:00:24.019Z,5.53
2022-07-30T10:02:50.429Z,5.13
2022-07-30T10:05:14.893Z,6.17
2022-07-30T10:07:25.657Z,5.80
2022-07-30T10:09:31.848Z,5.43
2022-07-30T10:11:35.214Z,5.67
2022-07-30T10:13:43.910Z,5.60
2022-07-30T10:15:50.725Z,6.33
2022-07-30T10:17:55.383Z,5.40
2022-07-30T10:20:22.689Z,8.43
2022-07-30T10:22:46.675Z,16.07
2022-07-30T10:25:11.344Z,6.30
2022-07-30T10:27:41.204Z,11.53
2022-07-30T10:29:57.454Z,12.87
2022-07-30T10:32:01.992Z,11.40
2022-07-30T10:34:06.401Z,11.10
2022-07-30T10:36:11.850Z,8.27
2022-07-30T10:38:16.426Z,5.50
2022-07-30T10:40:30.446Z,7.43
2022-07-30T10:42:48.766Z,5.70
2022-07-30T10:45:09.991Z,8.70
2022-07-30T10:47:24.686Z,5.23
2022-07-30T10:49:40.368Z,5.90
2022-07-30T10:51:46.589Z,6.43
2022-07-30T10:53:49.848Z,6.50
2022-07-30T10:56:12.205Z,5.57
2022-07-30T10:58:18.027Z,5.90
2022-07-30T11:00:26.948Z,5.73
2022-07-30T11:02:31.310Z,5.23
2022-07-30T11:04:36.855Z,6.20
2022-07-30T11:06:40.352Z,6.00
2022-07-30T11:08:45.056Z,6.17
2022-07-30T11:10:51.164Z,5.63
2022-07-30T11:12:55.621Z,6.50
2022-07-30T11:15:06.160Z,6.63
2022-07-30T11:17:10.555Z,6.10
2022-07-30T11:19:56.707Z,5.80
2022-07-30T11:21:42.404Z,5.53
2022-07-30T11:23:53.374Z,5.27
2022-07-30T11:25:58.429Z,6.90
2022-07-30T11:28:02.032Z,6.13
2022-07-30T11:30:08.193Z,5.30
2022-07-30T11:32:26.087Z,5.73
2022-07-30T11:34:30.675Z,6.07
2022-07-30T11:36:34.325Z,6.00
2022-07-30T11:39:00.084Z,5.70
2022-07-30T11:41:10.901Z,5.53
2022-07-30T11:43:34.556Z,7.07
2022-07-30T11:45:39.596Z,7.17
2022-07-30T11:47:43.162Z,5.77
2022-07-30T11:49:47.153Z,6.67
2022-07-30T11:51:51.016Z,5.70
2022-07-30T11:54:07.257Z,7.40
2022-07-30T11:56:10.437Z,5.60
2022-07-30T11:58:27.074Z,8.47
2022-07-30T12:00:36.648Z,6.80
2022-07-30T12:02:40.298Z,5.50
2022-07-30T12:04:44.700Z,5.30
2022-07-30T12:06:49.301Z,5.07
2022-07-30T12:08:58.556Z,6.30
2022-07-30T12:11:03.316Z,5.07
2022-07-30T12:13:11.383Z,4.90
2022-07-30T12:15:30.659Z,4.50
2022-07-30T12:17:42.574Z,4.77
2022-07-30T12:19:47.807Z,4.53
2022-07-30T12:21:53.547Z,5.70
2022-07-30T12:23:58.511Z,7.80
2022-07-30T12:26:03.270Z,5.17
2022-07-30T12:28:06.407Z,4.10
2022-07-30T12:30:10.331Z,6.27
2022-07-30T12:32:13.463Z,5.67
2022-07-30T12:34:23.713Z,5.77
2022-07-30T12:36:29.407Z,4.27
2022-07-30T12:38:44.766Z,5.07
2022-07-30T12:40:58.754Z,6.20
2022-07-30T12:43:03.218Z,3.97
2022-07-30T12:45:07.651Z,4.40
2022-07-30T12:47:21.664Z,4.30
2022-07-30T12:49:37.723Z,3.80
2022-07-30T12:52:00.354Z,4.33
2022-07-30T12:54:16.315Z,4.60
2022-07-30T12:56:24.103Z,6.20
2022-07-30T12:58:37.561Z,4.27
2022-07-30T13:00:52.134Z,5.07
2022-07-30T13:02:56.125Z,4.00
2022-07-30T13:05:10.813Z,3.90
2022-07-30T13:07:16.761Z,3.83
2022-07-30T13:09:21.035Z,4.03
2022-07-30T13:11:26.278Z,4.87
2022-07-30T13:13:32.759Z,4.50
2022-07-30T13:15:35.826Z,6.50
2022-07-30T13:17:40.427Z,4.80
2022-07-30T13:19:43.620Z,4.13
2022-07-30T13:21:49.758Z,4.70
2022-07-30T13:23:53.330Z,4.63
2022-07-30T13:25:56.838Z,5.70
2022-07-30T13:28:00.008Z,4.57
2022-07-30T13:30:05.254Z,8.03
2022-07-30T13:32:08.648Z,4.87
2022-07-30T13:34:12.133Z,4.50
2022-07-30T13:36:15.378Z,8.00
2022-07-30T13:38:18.847Z,4.40
2022-07-30T13:40:22.064Z,4.20
2022-07-30T13:42:25.306Z,5.40
2022-07-30T13:44:28.379Z,5.80
2022-07-30T13:46:33.509Z,4.63
2022-07-30T13:48:36.795Z,4.63
2022-07-30T13:50:40.141Z,5.73
2022-07-30T13:52:43.172Z,4.17
2022-07-30T13:54:46.595Z,4.60
2022-07-30T13:56:49.719Z,4.43
2022-07-30T13:58:52.797Z,5.03
2022-07-30T14:00:55.947Z,8.83
2022-07-30T14:03:01.404Z,5.20
2022-07-30T14:05:07.067Z,4.53
2022-07-30T14:07:10.415Z,5.20
2022-07-30T14:09:13.662Z,4.60
2022-07-30T14:11:17.824Z,4.47
2022-07-30T14:13:21.543Z,4.70
2022-07-30T14:15:26.305Z,4.40
2022-07-30T14:17:29.557Z,4.10
2022-07-30T14:19:33.998Z,5.63
2022-07-30T14:21:37.092Z,4.87
2022-07-30T14:23:40.140Z,6.27
2022-07-30T14:25:44.240Z,4.33
2022-07-30T14:27:48.177Z,5.80
2022-07-30T14:29:51.510Z,4.63
2022-07-30T14:31:54.598Z,5.63
2022-07-30T14:33:57.711Z,3.90
2022-07-30T14:36:02.138Z,4.10
2022-07-30T14:38:05.848Z,3.70
2022-07-30T14:40:11.728Z,3.50
2022-07-30T14:42:14.913Z,3.93
2022-07-30T14:44:18.001Z,4.90
2022-07-30T14:46:21.075Z,4.33
2022-07-30T14:48:24.153Z,5.30
2022-07-30T14:50:27.171Z,4.87
2022-07-30T14:52:34.906Z,4.60
2022-07-30T14:54:37.967Z,4.40
2022-07-30T14:56:41.079Z,4.23
2022-07-30T14:58:45.755Z,3.97
2022-07-30T15:00:49.232Z,4.40
2022-07-30T15:02:52.396Z,4.57
2022-07-30T15:04:55.644Z,4.03
2022-07-30T15:06:58.783Z,3.80
2022-07-30T15:09:03.541Z,6.03
2022-07-30T15:11:08.208Z,7.43
2022-07-30T15:13:12.825Z,3.93
2022-07-30T15:15:17.565Z,4.10
2022-07-30T15:17:20.805Z,3.80
2022-07-30T15:19:24.235Z,3.67
2022-07-30T15:21:27.370Z,4.30
2022-07-30T15:23:30.516Z,5.40
2022-07-30T15:25:34.968Z,4.03
2022-07-30T15:27:39.426Z,4.90
2022-07-30T15:29:42.794Z,5.80
2022-07-30T15:31:45.904Z,3.97
2022-07-30T15:33:49.665Z,4.57
2022-07-30T15:35:52.820Z,5.53
2022-07-30T15:37:55.909Z,3.90
2022-07-30T15:39:59.154Z,3.83
2022-07-30T15:42:06.061Z,3.80
2022-07-30T15:44:09.656Z,3.83
2022-07-30T15:46:12.652Z,4.13
2022-07-30T15:48:15.741Z,4.30
2022-07-30T15:50:28.391Z,4.40
2022-07-30T15:52:31.474Z,4.80
2022-07-30T15:54:34.711Z,3.83
2022-07-30T15:56:37.821Z,4.47
2022-07-30T15:58:43.625Z,4.80
2022-07-30T16:00:47.152Z,4.03
2022-07-30T16:02:51.108Z,8.83
2022-07-30T16:04:54.212Z,6.50
2022-07-30T16:06:58.078Z,3.70
2022-07-30T16:09:01.315Z,4.70
2022-07-30T16:11:05.307Z,6.03
2022-07-30T16:13:08.588Z,7.93
2022-07-30T16:15:13.460Z,5.93
2022-07-30T16:17:19.688Z,5.57
2022-07-30T16:19:22.918Z,4.13
2022-07-30T16:21:26.023Z,5.00
2022-07-30T16:23:36.663Z,3.83
2022-07-30T16:25:40.132Z,3.63
2022-07-30T16:27:43.606Z,4.50
2022-07-30T16:29:46.704Z,5.50
2022-07-30T16:31:51.202Z,5.00
2022-07-30T16:33:54.302Z,8.53
2022-07-30T16:35:57.355Z,3.83
2022-07-30T16:38:02.737Z,5.90
2022-07-30T16:40:07.011Z,3.50
2022-07-30T16:42:11.526Z,6.83
2022-07-30T16:44:14.746Z,4.00
2022-07-30T16:46:19.041Z,4.27
2022-07-30T16:48:24.022Z,3.73
2022-07-30T16:50:27.181Z,4.67
2022-07-30T16:52:30.335Z,4.40
2022-07-30T16:54:33.398Z,3.90
2022-07-30T16:56:36.535Z,3.60
2022-07-30T16:58:39.566Z,4.20
2022-07-30T17:00:42.817Z,6.90
2022-07-30T17:02:46.053Z,5.77
2022-07-30T17:04:50.477Z,6.93
2022-07-30T17:06:53.563Z,4.30
2022-07-30T17:08:56.672Z,3.73
2022-07-30T17:11:00.330Z,3.83
2022-07-30T17:13:03.814Z,3.80
2022-07-30T17:15:07.901Z,5.03
2022-07-30T17:17:14.399Z,4.20
2022-07-30T17:19:17.812Z,3.97
2022-07-30T17:21:23.028Z,3.40
2022-07-30T17:23:26.240Z,4.23
2022-07-30T17:25:29.291Z,4.10
2022-07-30T17:27:33.297Z,7.13
2022-07-30T17:29:50.326Z,4.90
2022-07-30T17:31:55.616Z,3.90
2022-07-30T17:33:58.873Z,6.17
2022-07-30T17:36:02.122Z,5.47
2022-07-30T17:38:07.256Z,4.00
2022-07-30T17:40:28.543Z,4.00
2022-07-30T17:42:34.801Z,13.70
2022-07-30T17:44:37.932Z,4.10
2022-07-30T17:46:41.079Z,4.33
2022-07-30T17:48:44.445Z,6.50
2022-07-30T17:50:48.095Z,4.37
2022-07-30T17:52:51.158Z,3.90
2022-07-30T17:54:55.730Z,3.70
2022-07-30T17:56:58.886Z,3.63
2022-07-30T17:59:01.993Z,4.03
2022-07-30T18:01:05.696Z,8.67
2022-07-30T18:03:08.868Z,3.90
2022-07-30T18:05:15.402Z,4.60
2022-07-30T18:07:18.550Z,4.00
2022-07-30T18:09:21.665Z,4.00
2022-07-30T18:11:26.185Z,4.37
2022-07-30T18:13:29.932Z,4.83
2022-07-30T18:15:36.005Z,4.30
2022-07-30T18:17:39.357Z,4.17
2022-07-30T18:19:42.523Z,5.10
2022-07-30T18:21:45.707Z,4.23
2022-07-30T18:23:49.475Z,4.23
2022-07-30T18:25:54.452Z,5.67
2022-07-30T18:27:59.122Z,8.60
2022-07-30T18:30:02.289Z,5.57
2022-07-30T18:32:06.366Z,5.97
2022-07-30T18:34:09.675Z,7.20
2022-07-30T18:36:12.767Z,8.80
2022-07-30T18:38:16.380Z,9.77
2022-07-30T18:40:23.881Z,8.50
2022-07-30T18:42:27.034Z,12.80
2022-07-30T18:44:31.588Z,36.77
2022-07-30T18:46:34.845Z,22.90
2022-07-30T18:48:37.936Z,12.70
2022-07-30T18:50:41.527Z,7.53
2022-07-30T18:52:46.811Z,7.27
2022-07-30T18:54:51.076Z,4.60
2022-07-30T18:56:56.759Z,4.93
2022-07-30T18:59:02.700Z,5.80
2022-07-30T19:01:08.077Z,6.70
2022-07-30T19:03:17.422Z,5.20
2022-07-30T19:05:24.264Z,5.40
2022-07-30T19:07:27.351Z,11.27
2022-07-30T19:09:30.476Z,9.80
2022-07-30T19:11:33.585Z,5.30
2022-07-30T19:13:39.641Z,4.37
2022-07-30T19:15:42.761Z,5.90
2022-07-30T19:17:48.754Z,16.17
2022-07-30T19:19:52.172Z,14.43
2022-07-30T19:21:55.227Z,12.50
2022-07-30T19:23:58.475Z,14.97
2022-07-30T19:26:01.728Z,10.50
2022-07-30T19:28:05.790Z,7.97
2022-07-30T19:30:10.267Z,8.67
2022-07-30T19:32:13.511Z,5.40
2022-07-30T19:34:17.998Z,5.37
2022-07-30T19:36:21.634Z,5.03
2022-07-30T19:38:24.695Z,5.10
2022-07-30T19:40:27.884Z,5.40
2022-07-30T19:42:31.033Z,4.53
2022-07-30T19:44:40.433Z,5.10
2022-07-30T19:46:44.468Z,4.77
2022-07-30T19:48:47.998Z,5.40
2022-07-30T19:50:58.185Z,6.00
2022-07-30T19:53:01.897Z,5.47
2022-07-30T19:55:16.879Z,6.47
2022-07-30T19:57:53.208Z,8.47
2022-07-30T20:00:00.224Z,7.10
2022-07-30T20:02:15.656Z,5.57
2022-07-30T20:04:18.893Z,5.33
2022-07-30T20:06:23.929Z,5.70
2022-07-30T20:08:27.196Z,6.07
2022-07-30T20:10:30.337Z,7.07
2022-07-30T20:12:34.414Z,5.97
2022-07-30T20:14:37.785Z,5.30
2022-07-30T20:16:47.593Z,4.80
2022-07-30T20:18:51.535Z,5.20
2022-07-30T20:20:55.663Z,5.43
2022-07-30T20:23:02.144Z,5.77
2022-07-30T20:25:07.039Z,6.43
2022-07-30T20:27:35.802Z,5.27
2022-07-30T20:29:34.285Z,5.50
2022-07-30T20:31:37.654Z,5.90
2022-07-30T20:33:41.177Z,6.90
2022-07-30T20:35:45.220Z,6.87
2022-07-30T20:37:55.724Z,6.17
2022-07-30T20:40:14.775Z,5.80
2022-07-30T20:42:18.645Z,5.60
2022-07-30T20:44:24.944Z,5.27
2022-07-30T20:46:28.213Z,9.73
2022-07-30T20:48:34.811Z,7.80
2022-07-30T20:50:39.767Z,6.20
2022-07-30T20:52:44.926Z,6.77
2022-07-30T20:54:49.961Z,5.73
2022-07-30T20:56:54.427Z,13.03
2022-07-30T20:58:57.926Z,11.37
2022-07-30T21:01:03.919Z,7.30
2022-07-30T21:03:13.774Z,6.37
2022-07-30T21:05:19.806Z,8.33
2022-07-30T21:07:23.301Z,7.50
2022-07-30T21:09:49.762Z,8.00
2022-07-30T21:11:57.215Z,8.30
2022-07-30T21:14:03.255Z,9.50
2022-07-30T21:16:15.484Z,7.50
2022-07-30T21:18:19.576Z,6.23
2022-07-30T21:20:27.903Z,9.17
2022-07-30T21:22:31.389Z,8.10
2022-07-30T21:24:34.655Z,10.60
2022-07-30T21:26:38.901Z,6.97
2022-07-30T21:28:43.911Z,6.63
2022-07-30T21:30:47.044Z,6.33
2022-07-30T21:32:50.150Z,6.87
2022-07-30T21:34:54.523Z,7.50
2022-07-30T21:36:57.635Z,6.93
2022-07-30T21:39:01.751Z,9.20
2022-07-30T21:41:05.750Z,6.10
2022-07-30T21:43:14.053Z,6.50
2022-07-30T21:45:38.017Z,6.20
2022-07-30T21:47:47.618Z,6.40
2022-07-30T21:49:51.179Z,6.37
2022-07-30T21:51:56.344Z,6.50
2022-07-30T21:53:59.491Z,7.00
2022-07-30T21:56:02.953Z,7.17
2022-07-30T21:58:08.745Z,7.07
2022-07-30T22:00:44.589Z,6.60
2022-07-30T22:02:52.957Z,8.17
2022-07-30T22:04:56.919Z,7.63
2022-07-30T22:07:02.517Z,7.47
2022-07-30T22:09:19.548Z,7.03
2022-07-30T22:11:42.187Z,10.03
2022-07-30T22:13:53.675Z,7.33
2022-07-30T22:15:59.031Z,7.43
2022-07-30T22:18:02.151Z,7.67
2022-07-30T22:20:08.450Z,7.30
2022-07-30T22:22:25.981Z,6.90
2022-07-30T22:24:31.339Z,6.67
2022-07-30T22:26:34.842Z,6.40
2022-07-30T22:28:39.094Z,7.70
2022-07-30T22:30:42.458Z,7.60
2022-07-30T22:32:48.833Z,7.10
2022-07-30T22:34:52.834Z,6.90
2022-07-30T22:36:57.599Z,7.13
2022-07-30T22:39:00.809Z,7.80
2022-07-30T22:41:04.162Z,7.33
2022-07-30T22:43:09.739Z,7.60
2022-07-30T22:45:15.814Z,7.17
2022-07-30T22:47:21.394Z,7.30
2022-07-30T22:49:45.875Z,7.13
2022-07-30T22:52:04.872Z,8.20
2022-07-30T22:54:16.405Z,7.30
2022-07-30T22:56:23.876Z,7.40
2022-07-30T22:58:28.703Z,8.33
2022-07-30T23:00:33.000Z,7.47
2022-07-30T23:02:36.366Z,7.80
2022-07-30T23:04:39.585Z,8.57
2022-07-30T23:06:45.113Z,9.07
2022-07-30T23:08:50.644Z,8.83
2022-07-30T23:10:53.739Z,8.00
2022-07-30T23:12:57.347Z,7.50
2022-07-30T23:15:00.587Z,7.63
2022-07-30T23:17:04.010Z,8.10
2022-07-30T23:19:07.708Z,8.10
2022-07-30T23:21:10.977Z,8.40
2022-07-30T23:23:15.530Z,9.13
2022-07-30T23:25:18.891Z,7.80
2022-07-30T23:27:21.969Z,7.93
2022-07-30T23:29:25.083Z,7.83
2022-07-30T23:31:28.307Z,7.63
2022-07-30T23:33:31.635Z,9.03
2022-07-30T23:35:34.925Z,7.83
2022-07-30T23:37:48.253Z,7.33
2022-07-30T23:39:54.037Z,7.30
2022-07-30T23:41:57.242Z,9.10
2022-07-30T23:44:00.365Z,7.40
2022-07-30T23:46:04.022Z,7.77
2022-07-30T23:48:13.140Z,8.00
2022-07-30T23:50:18.646Z,8.00
2022-07-30T23:52:21.785Z,7.50
2022-07-30T23:54:24.777Z,8.33
2022-07-30T23:56:29.443Z,7.77
2022-07-30T23:58:32.559Z,7.73
